sensor_id;sensor_type;location;lat;lon;timestamp;pressure;altitude;pressure_sealevel;temperature;humidity
48810;BME280;40070;47.322;18.784;2024-03-25T00:01:26;993.35;;;7.57;59.38
48810;BME280;40070;47.322;18.784;2024-03-25T00:03:28;993.34;;;7.54;59.78
48810;BME280;40070;47.322;18.784;2024-03-25T00:05:30;993.33;;;7.47;59.43
48810;BME280;40070;47.322;18.784;2024-03-25T00:07:33;993.32;;;7.49;59.72
48810;BME280;40070;47.322;18.784;2024-03-25T00:09:35;993.31;;;7.37;59.10
48810;BME280;40070;47.322;18.784;2024-03-25T00:11:38;993.32;;;7.02;59.95
48810;BME280;40070;47.322;18.784;2024-03-25T00:13:40;993.37;;;6.92;60.09
48810;BME280;40070;47.322;18.784;2024-03-25T00:15:43;993.29;;;6.77;60.54
48810;BME280;40070;47.322;18.784;2024-03-25T00:17:49;993.29;;;6.94;59.57
48810;BME280;40070;47.322;18.784;2024-03-25T00:19:51;993.30;;;6.94;59.50
48810;BME280;40070;47.322;18.784;2024-03-25T00:21:54;993.22;;;7.03;59.30
48810;BME280;40070;47.322;18.784;2024-03-25T00:23:56;993.27;;;6.92;59.41
48810;BME280;40070;47.322;18.784;2024-03-25T00:25:59;993.24;;;6.85;59.24
48810;BME280;40070;47.322;18.784;2024-03-25T00:28:01;993.23;;;6.84;59.44
48810;BME280;40070;47.322;18.784;2024-03-25T00:30:04;993.20;;;6.82;59.68
48810;BME280;40070;47.322;18.784;2024-03-25T00:32:07;993.17;;;6.91;59.39
48810;BME280;40070;47.322;18.784;2024-03-25T00:34:09;993.16;;;6.80;59.73
48810;BME280;40070;47.322;18.784;2024-03-25T00:36:12;993.19;;;6.84;59.87
48810;BME280;40070;47.322;18.784;2024-03-25T00:38:14;993.14;;;6.90;59.37
48810;BME280;40070;47.322;18.784;2024-03-25T00:40:16;993.13;;;6.80;59.64
48810;BME280;40070;47.322;18.784;2024-03-25T00:42:19;993.08;;;6.90;59.29
48810;BME280;40070;47.322;18.784;2024-03-25T00:44:21;993.08;;;6.69;59.97
48810;BME280;40070;47.322;18.784;2024-03-25T00:46:24;993.12;;;6.70;59.90
48810;BME280;40070;47.322;18.784;2024-03-25T00:48:26;993.10;;;6.69;60.04
48810;BME280;40070;47.322;18.784;2024-03-25T00:50:29;993.07;;;6.77;59.82
48810;BME280;40070;47.322;18.784;2024-03-25T00:52:31;993.04;;;6.59;60.45
48810;BME280;40070;47.322;18.784;2024-03-25T00:54:34;993.02;;;6.41;60.79
48810;BME280;40070;47.322;18.784;2024-03-25T00:56:36;993.01;;;6.52;60.74
48810;BME280;40070;47.322;18.784;2024-03-25T00:58:39;992.99;;;6.49;60.81
48810;BME280;40070;47.322;18.784;2024-03-25T01:00:41;993.00;;;6.58;60.74
48810;BME280;40070;47.322;18.784;2024-03-25T01:02:44;993.00;;;6.61;60.32
48810;BME280;40070;47.322;18.784;2024-03-25T01:04:46;993.01;;;6.60;60.42
48810;BME280;40070;47.322;18.784;2024-03-25T01:06:49;992.99;;;6.32;61.26
48810;BME280;40070;47.322;18.784;2024-03-25T01:08:51;992.99;;;6.43;60.95
48810;BME280;40070;47.322;18.784;2024-03-25T01:10:54;992.94;;;6.39;61.21
48810;BME280;40070;47.322;18.784;2024-03-25T01:12:56;992.96;;;6.28;61.63
48810;BME280;40070;47.322;18.784;2024-03-25T01:14:58;992.95;;;6.25;61.57
48810;BME280;40070;47.322;18.784;2024-03-25T01:17:01;992.94;;;6.20;61.77
48810;BME280;40070;47.322;18.784;2024-03-25T01:19:03;992.96;;;6.16;61.97
48810;BME280;40070;47.322;18.784;2024-03-25T01:21:06;992.96;;;6.12;61.93
48810;BME280;40070;47.322;18.784;2024-03-25T01:23:08;992.92;;;6.11;62.23
48810;BME280;40070;47.322;18.784;2024-03-25T01:25:11;992.92;;;6.07;62.17
48810;BME280;40070;47.322;18.784;2024-03-25T01:27:13;992.96;;;6.02;62.27
48810;BME280;40070;47.322;18.784;2024-03-25T01:29:16;992.93;;;6.22;61.96
48810;BME280;40070;47.322;18.784;2024-03-25T01:31:18;992.95;;;6.40;61.27
48810;BME280;40070;47.322;18.784;2024-03-25T01:33:21;992.97;;;6.31;61.41
48810;BME280;40070;47.322;18.784;2024-03-25T01:35:24;992.98;;;6.28;61.62
48810;BME280;40070;47.322;18.784;2024-03-25T01:37:26;992.98;;;6.25;61.56
48810;BME280;40070;47.322;18.784;2024-03-25T01:39:28;993.01;;;6.36;61.34
48810;BME280;40070;47.322;18.784;2024-03-25T01:41:31;992.99;;;6.31;61.68
48810;BME280;40070;47.322;18.784;2024-03-25T01:43:33;992.97;;;6.47;61.35
48810;BME280;40070;47.322;18.784;2024-03-25T01:45:36;993.00;;;6.50;61.27
48810;BME280;40070;47.322;18.784;2024-03-25T01:47:38;993.05;;;6.63;61.02
48810;BME280;40070;47.322;18.784;2024-03-25T01:49:41;992.99;;;6.78;60.69
48810;BME280;40070;47.322;18.784;2024-03-25T01:51:43;992.98;;;6.87;60.28
48810;BME280;40070;47.322;18.784;2024-03-25T01:53:46;993.02;;;6.79;60.36
48810;BME280;40070;47.322;18.784;2024-03-25T01:55:49;993.03;;;6.70;60.50
48810;BME280;40070;47.322;18.784;2024-03-25T01:57:51;993.02;;;6.79;60.50
48810;BME280;40070;47.322;18.784;2024-03-25T01:59:54;993.02;;;6.93;60.22
48810;BME280;40070;47.322;18.784;2024-03-25T02:01:57;993.00;;;6.93;60.06
48810;BME280;40070;47.322;18.784;2024-03-25T02:03:59;992.94;;;6.95;59.91
48810;BME280;40070;47.322;18.784;2024-03-25T02:06:04;992.92;;;7.00;59.82
48810;BME280;40070;47.322;18.784;2024-03-25T02:08:09;992.93;;;7.01;59.72
48810;BME280;40070;47.322;18.784;2024-03-25T02:10:11;992.98;;;6.73;60.49
48810;BME280;40070;47.322;18.784;2024-03-25T02:12:14;992.99;;;6.72;60.61
48810;BME280;40070;47.322;18.784;2024-03-25T02:14:16;992.95;;;6.85;60.33
48810;BME280;40070;47.322;18.784;2024-03-25T02:16:19;992.95;;;6.83;60.41
48810;BME280;40070;47.322;18.784;2024-03-25T02:18:22;992.91;;;7.00;59.92
48810;BME280;40070;47.322;18.784;2024-03-25T02:20:24;992.93;;;6.75;60.43
48810;BME280;40070;47.322;18.784;2024-03-25T02:22:27;992.97;;;6.86;60.09
48810;BME280;40070;47.322;18.784;2024-03-25T02:24:29;992.96;;;6.97;59.83
48810;BME280;40070;47.322;18.784;2024-03-25T02:26:33;992.97;;;6.94;59.91
48810;BME280;40070;47.322;18.784;2024-03-25T02:28:35;992.90;;;7.06;59.63
48810;BME280;40070;47.322;18.784;2024-03-25T02:30:38;992.94;;;7.05;59.60
48810;BME280;40070;47.322;18.784;2024-03-25T02:32:40;992.93;;;7.11;59.64
48810;BME280;40070;47.322;18.784;2024-03-25T02:34:44;992.94;;;7.06;59.40
48810;BME280;40070;47.322;18.784;2024-03-25T02:36:47;992.97;;;7.08;59.59
48810;BME280;40070;47.322;18.784;2024-03-25T02:38:50;992.97;;;7.10;59.66
48810;BME280;40070;47.322;18.784;2024-03-25T02:40:52;992.92;;;7.05;59.71
48810;BME280;40070;47.322;18.784;2024-03-25T02:42:55;992.95;;;6.99;59.84
48810;BME280;40070;47.322;18.784;2024-03-25T02:44:58;993.02;;;7.01;59.85
48810;BME280;40070;47.322;18.784;2024-03-25T02:47:00;992.99;;;6.91;60.18
48810;BME280;40070;47.322;18.784;2024-03-25T02:49:03;992.98;;;6.97;60.02
48810;BME280;40070;47.322;18.784;2024-03-25T02:51:06;993.01;;;6.97;60.07
48810;BME280;40070;47.322;18.784;2024-03-25T02:53:08;992.95;;;7.01;60.03
48810;BME280;40070;47.322;18.784;2024-03-25T02:55:11;993.01;;;6.93;60.28
48810;BME280;40070;47.322;18.784;2024-03-25T02:57:13;993.00;;;6.87;60.49
48810;BME280;40070;47.322;18.784;2024-03-25T02:59:16;993.02;;;6.89;60.58
48810;BME280;40070;47.322;18.784;2024-03-25T03:01:18;992.96;;;7.00;60.33
48810;BME280;40070;47.322;18.784;2024-03-25T03:03:21;993.03;;;6.95;60.41
48810;BME280;40070;47.322;18.784;2024-03-25T03:05:23;992.99;;;7.14;60.11
48810;BME280;40070;47.322;18.784;2024-03-25T03:07:26;993.04;;;7.10;60.13
48810;BME280;40070;47.322;18.784;2024-03-25T03:09:28;993.04;;;7.20;59.85
48810;BME280;40070;47.322;18.784;2024-03-25T03:11:31;993.06;;;7.26;59.98
48810;BME280;40070;47.322;18.784;2024-03-25T03:13:33;993.07;;;7.33;59.94
48810;BME280;40070;47.322;18.784;2024-03-25T03:15:35;993.08;;;7.19;60.43
48810;BME280;40070;47.322;18.784;2024-03-25T03:17:38;993.10;;;7.36;59.93
48810;BME280;40070;47.322;18.784;2024-03-25T03:19:40;993.14;;;7.38;59.76
48810;BME280;40070;47.322;18.784;2024-03-25T03:21:43;993.15;;;7.47;60.14
48810;BME280;40070;47.322;18.784;2024-03-25T03:23:45;993.14;;;7.52;59.47
48810;BME280;40070;47.322;18.784;2024-03-25T03:25:48;993.20;;;7.50;61.36
48810;BME280;40070;47.322;18.784;2024-03-25T03:27:50;993.20;;;7.51;61.13
48810;BME280;40070;47.322;18.784;2024-03-25T03:29:53;993.24;;;7.51;61.48
48810;BME280;40070;47.322;18.784;2024-03-25T03:31:55;993.22;;;7.60;60.21
48810;BME280;40070;47.322;18.784;2024-03-25T03:33:58;993.29;;;7.52;59.92
48810;BME280;40070;47.322;18.784;2024-03-25T03:36:00;993.28;;;7.48;60.24
48810;BME280;40070;47.322;18.784;2024-03-25T03:38:03;993.22;;;7.24;59.21
48810;BME280;40070;47.322;18.784;2024-03-25T03:40:06;993.21;;;7.37;59.14
48810;BME280;40070;47.322;18.784;2024-03-25T03:42:08;993.18;;;7.24;58.89
48810;BME280;40070;47.322;18.784;2024-03-25T03:44:11;993.18;;;7.28;59.67
48810;BME280;40070;47.322;18.784;2024-03-25T03:46:13;993.15;;;7.38;59.54
48810;BME280;40070;47.322;18.784;2024-03-25T03:48:16;993.13;;;7.38;59.50
48810;BME280;40070;47.322;18.784;2024-03-25T03:50:18;993.13;;;7.41;59.29
48810;BME280;40070;47.322;18.784;2024-03-25T03:52:21;993.05;;;7.49;59.18
48810;BME280;40070;47.322;18.784;2024-03-25T03:54:23;993.12;;;7.47;58.70
48810;BME280;40070;47.322;18.784;2024-03-25T03:56:26;993.12;;;7.50;59.73
48810;BME280;40070;47.322;18.784;2024-03-25T03:58:28;993.18;;;7.57;58.81
48810;BME280;40070;47.322;18.784;2024-03-25T04:00:34;993.18;;;7.63;59.46
48810;BME280;40070;47.322;18.784;2024-03-25T04:02:37;993.22;;;7.59;59.07
48810;BME280;40070;47.322;18.784;2024-03-25T04:04:39;993.23;;;7.55;59.63
48810;BME280;40070;47.322;18.784;2024-03-25T04:06:41;993.24;;;7.62;60.19
48810;BME280;40070;47.322;18.784;2024-03-25T04:08:44;993.24;;;7.68;60.02
48810;BME280;40070;47.322;18.784;2024-03-25T04:10:46;993.26;;;7.67;60.12
48810;BME280;40070;47.322;18.784;2024-03-25T04:12:49;993.26;;;7.67;60.58
48810;BME280;40070;47.322;18.784;2024-03-25T04:14:51;993.29;;;7.56;61.19
48810;BME280;40070;47.322;18.784;2024-03-25T04:16:54;993.27;;;7.68;59.70
48810;BME280;40070;47.322;18.784;2024-03-25T04:18:57;993.33;;;7.79;59.79
48810;BME280;40070;47.322;18.784;2024-03-25T04:20:59;993.32;;;7.68;60.15
48810;BME280;40070;47.322;18.784;2024-03-25T04:23:02;993.35;;;7.81;59.16
48810;BME280;40070;47.322;18.784;2024-03-25T04:25:05;993.42;;;7.91;60.06
48810;BME280;40070;47.322;18.784;2024-03-25T04:27:07;993.47;;;7.89;59.58
48810;BME280;40070;47.322;18.784;2024-03-25T04:29:10;993.51;;;7.90;58.88
48810;BME280;40070;47.322;18.784;2024-03-25T04:31:12;993.51;;;7.85;59.16
48810;BME280;40070;47.322;18.784;2024-03-25T04:33:14;993.59;;;7.75;59.39
48810;BME280;40070;47.322;18.784;2024-03-25T04:35:17;993.56;;;7.82;58.71
48810;BME280;40070;47.322;18.784;2024-03-25T04:37:19;993.59;;;7.79;59.17
48810;BME280;40070;47.322;18.784;2024-03-25T04:39:22;993.66;;;7.73;59.65
48810;BME280;40070;47.322;18.784;2024-03-25T04:41:24;993.69;;;7.79;59.19
48810;BME280;40070;47.322;18.784;2024-03-25T04:43:27;993.73;;;8.02;58.95
48810;BME280;40070;47.322;18.784;2024-03-25T04:45:29;993.73;;;8.16;59.13
48810;BME280;40070;47.322;18.784;2024-03-25T04:47:32;993.74;;;7.99;58.90
48810;BME280;40070;47.322;18.784;2024-03-25T04:49:34;993.77;;;7.77;59.03
48810;BME280;40070;47.322;18.784;2024-03-25T04:51:37;993.78;;;7.67;60.08
48810;BME280;40070;47.322;18.784;2024-03-25T04:53:39;993.78;;;7.81;59.71
48810;BME280;40070;47.322;18.784;2024-03-25T04:55:42;993.83;;;7.82;58.92
48810;BME280;40070;47.322;18.784;2024-03-25T04:57:45;993.88;;;7.89;58.64
48810;BME280;40070;47.322;18.784;2024-03-25T04:59:47;993.84;;;7.98;58.44
48810;BME280;40070;47.322;18.784;2024-03-25T05:01:50;993.89;;;7.94;58.17
48810;BME280;40070;47.322;18.784;2024-03-25T05:03:53;993.92;;;8.06;58.40
48810;BME280;40070;47.322;18.784;2024-03-25T05:05:55;993.92;;;8.11;57.96
48810;BME280;40070;47.322;18.784;2024-03-25T05:07:58;993.93;;;8.08;57.91
48810;BME280;40070;47.322;18.784;2024-03-25T05:10:00;994.01;;;7.98;58.55
48810;BME280;40070;47.322;18.784;2024-03-25T05:12:03;994.06;;;7.92;58.65
48810;BME280;40070;47.322;18.784;2024-03-25T05:14:05;994.06;;;7.77;59.04
48810;BME280;40070;47.322;18.784;2024-03-25T05:16:08;994.12;;;7.87;59.10
48810;BME280;40070;47.322;18.784;2024-03-25T05:18:10;994.07;;;7.91;59.10
48810;BME280;40070;47.322;18.784;2024-03-25T05:20:13;994.09;;;7.78;59.71
48810;BME280;40070;47.322;18.784;2024-03-25T05:22:15;994.09;;;7.76;60.11
48810;BME280;40070;47.322;18.784;2024-03-25T05:24:18;994.06;;;8.06;59.51
48810;BME280;40070;47.322;18.784;2024-03-25T05:26:20;994.14;;;8.12;59.47
48810;BME280;40070;47.322;18.784;2024-03-25T05:28:23;994.19;;;7.97;60.50
48810;BME280;40070;47.322;18.784;2024-03-25T05:30:25;994.20;;;7.84;61.03
48810;BME280;40070;47.322;18.784;2024-03-25T05:32:28;994.26;;;7.51;62.30
48810;BME280;40070;47.322;18.784;2024-03-25T05:34:30;994.27;;;7.67;62.05
48810;BME280;40070;47.322;18.784;2024-03-25T05:36:33;994.30;;;7.70;62.55
48810;BME280;40070;47.322;18.784;2024-03-25T05:38:35;994.37;;;7.49;63.03
48810;BME280;40070;47.322;18.784;2024-03-25T05:40:38;994.36;;;7.52;63.61
48810;BME280;40070;47.322;18.784;2024-03-25T05:42:40;994.40;;;7.55;63.84
48810;BME280;40070;47.322;18.784;2024-03-25T05:44:46;994.40;;;7.51;64.24
48810;BME280;40070;47.322;18.784;2024-03-25T05:46:49;994.47;;;7.64;64.01
48810;BME280;40070;47.322;18.784;2024-03-25T05:48:51;994.42;;;7.36;64.37
48810;BME280;40070;47.322;18.784;2024-03-25T05:51:00;994.43;;;7.67;64.15
48810;BME280;40070;47.322;18.784;2024-03-25T05:53:03;994.51;;;7.68;64.02
48810;BME280;40070;47.322;18.784;2024-03-25T05:55:05;994.48;;;7.66;63.73
48810;BME280;40070;47.322;18.784;2024-03-25T05:57:08;994.47;;;7.82;63.49
48810;BME280;40070;47.322;18.784;2024-03-25T05:59:10;994.48;;;7.77;63.70
48810;BME280;40070;47.322;18.784;2024-03-25T06:01:13;994.41;;;7.92;63.26
48810;BME280;40070;47.322;18.784;2024-03-25T06:03:16;994.44;;;7.95;63.36
48810;BME280;40070;47.322;18.784;2024-03-25T06:05:18;994.42;;;8.02;62.90
48810;BME280;40070;47.322;18.784;2024-03-25T06:07:21;994.39;;;8.25;62.37
48810;BME280;40070;47.322;18.784;2024-03-25T06:09:23;994.31;;;8.21;62.29
48810;BME280;40070;47.322;18.784;2024-03-25T06:11:26;994.32;;;8.18;62.90
48810;BME280;40070;47.322;18.784;2024-03-25T06:13:28;994.27;;;8.08;62.69
48810;BME280;40070;47.322;18.784;2024-03-25T06:15:31;994.24;;;8.16;62.50
48810;BME280;40070;47.322;18.784;2024-03-25T06:17:33;994.27;;;7.92;63.60
48810;BME280;40070;47.322;18.784;2024-03-25T06:19:36;994.24;;;8.04;62.55
48810;BME280;40070;47.322;18.784;2024-03-25T06:21:38;994.24;;;8.31;62.37
48810;BME280;40070;47.322;18.784;2024-03-25T06:23:41;994.20;;;8.52;61.49
48810;BME280;40070;47.322;18.784;2024-03-25T06:25:44;994.15;;;8.71;61.12
48810;BME280;40070;47.322;18.784;2024-03-25T06:27:46;994.13;;;8.63;60.57
48810;BME280;40070;47.322;18.784;2024-03-25T06:29:48;994.11;;;8.78;61.46
48810;BME280;40070;47.322;18.784;2024-03-25T06:31:51;994.12;;;8.87;60.80
48810;BME280;40070;47.322;18.784;2024-03-25T06:33:53;994.12;;;8.82;60.37
48810;BME280;40070;47.322;18.784;2024-03-25T06:35:56;994.09;;;8.77;60.57
48810;BME280;40070;47.322;18.784;2024-03-25T06:37:58;994.15;;;8.70;59.99
48810;BME280;40070;47.322;18.784;2024-03-25T06:40:01;994.19;;;8.83;58.86
48810;BME280;40070;47.322;18.784;2024-03-25T06:42:04;994.24;;;9.05;58.13
48810;BME280;40070;47.322;18.784;2024-03-25T06:44:06;994.28;;;9.11;58.04
48810;BME280;40070;47.322;18.784;2024-03-25T06:46:09;994.27;;;9.19;57.67
48810;BME280;40070;47.322;18.784;2024-03-25T06:48:11;994.32;;;9.27;57.18
48810;BME280;40070;47.322;18.784;2024-03-25T06:50:14;994.34;;;9.32;56.67
48810;BME280;40070;47.322;18.784;2024-03-25T06:52:16;994.38;;;9.02;57.03
48810;BME280;40070;47.322;18.784;2024-03-25T06:54:18;994.44;;;9.21;56.80
48810;BME280;40070;47.322;18.784;2024-03-25T06:56:21;994.45;;;8.98;57.72
48810;BME280;40070;47.322;18.784;2024-03-25T06:58:24;994.42;;;9.01;58.35
48810;BME280;40070;47.322;18.784;2024-03-25T07:00:27;994.50;;;9.29;57.83
48810;BME280;40070;47.322;18.784;2024-03-25T07:02:29;994.54;;;9.49;57.87
48810;BME280;40070;47.322;18.784;2024-03-25T07:04:34;994.58;;;9.44;57.62
48810;BME280;40070;47.322;18.784;2024-03-25T07:06:37;994.58;;;9.50;57.22
48810;BME280;40070;47.322;18.784;2024-03-25T07:08:39;994.56;;;9.69;57.47
48810;BME280;40070;47.322;18.784;2024-03-25T07:10:42;994.62;;;9.80;57.66
48810;BME280;40070;47.322;18.784;2024-03-25T07:12:44;994.58;;;10.23;56.82
48810;BME280;40070;47.322;18.784;2024-03-25T07:14:47;994.62;;;10.42;56.02
48810;BME280;40070;47.322;18.784;2024-03-25T07:16:49;994.66;;;10.17;55.80
48810;BME280;40070;47.322;18.784;2024-03-25T07:18:52;994.71;;;10.30;56.05
48810;BME280;40070;47.322;18.784;2024-03-25T07:20:54;994.75;;;10.42;56.26
48810;BME280;40070;47.322;18.784;2024-03-25T07:22:57;994.72;;;10.47;56.54
48810;BME280;40070;47.322;18.784;2024-03-25T07:24:59;994.67;;;10.69;55.78
48810;BME280;40070;47.322;18.784;2024-03-25T07:27:02;994.69;;;10.27;55.07
48810;BME280;40070;47.322;18.784;2024-03-25T07:29:04;994.68;;;10.13;54.41
48810;BME280;40070;47.322;18.784;2024-03-25T07:31:07;994.66;;;10.11;54.23
48810;BME280;40070;47.322;18.784;2024-03-25T07:33:09;994.65;;;10.02;53.44
48810;BME280;40070;47.322;18.784;2024-03-25T07:35:12;994.69;;;10.02;53.73
48810;BME280;40070;47.322;18.784;2024-03-25T07:37:14;994.73;;;10.08;53.69
48810;BME280;40070;47.322;18.784;2024-03-25T07:39:17;994.72;;;10.16;53.57
48810;BME280;40070;47.322;18.784;2024-03-25T07:41:19;994.72;;;10.14;53.80
48810;BME280;40070;47.322;18.784;2024-03-25T07:43:21;994.87;;;9.95;55.82
48810;BME280;40070;47.322;18.784;2024-03-25T07:45:24;994.81;;;9.32;57.27
48810;BME280;40070;47.322;18.784;2024-03-25T07:47:27;994.83;;;9.35;57.15
48810;BME280;40070;47.322;18.784;2024-03-25T07:49:29;994.79;;;9.60;56.54
48810;BME280;40070;47.322;18.784;2024-03-25T07:51:31;994.72;;;9.79;55.75
48810;BME280;40070;47.322;18.784;2024-03-25T07:53:34;994.78;;;9.96;55.59
48810;BME280;40070;47.322;18.784;2024-03-25T07:55:36;994.75;;;10.27;54.51
48810;BME280;40070;47.322;18.784;2024-03-25T07:57:39;994.78;;;10.40;54.05
48810;BME280;40070;47.322;18.784;2024-03-25T07:59:41;994.76;;;10.42;52.19
48810;BME280;40070;47.322;18.784;2024-03-25T08:01:44;994.72;;;10.56;52.14
48810;BME280;40070;47.322;18.784;2024-03-25T08:03:46;994.68;;;10.74;51.60
48810;BME280;40070;47.322;18.784;2024-03-25T08:05:49;994.70;;;10.86;51.03
48810;BME280;40070;47.322;18.784;2024-03-25T08:07:51;994.67;;;10.99;49.96
48810;BME280;40070;47.322;18.784;2024-03-25T08:09:54;994.68;;;11.01;50.07
48810;BME280;40070;47.322;18.784;2024-03-25T08:11:56;994.72;;;11.44;49.50
48810;BME280;40070;47.322;18.784;2024-03-25T08:13:59;994.67;;;11.35;49.14
48810;BME280;40070;47.322;18.784;2024-03-25T08:16:01;994.74;;;11.25;48.91
48810;BME280;40070;47.322;18.784;2024-03-25T08:18:04;994.73;;;11.30;48.61
48810;BME280;40070;47.322;18.784;2024-03-25T08:20:07;994.80;;;11.34;48.09
48810;BME280;40070;47.322;18.784;2024-03-25T08:22:09;994.76;;;11.57;47.58
48810;BME280;40070;47.322;18.784;2024-03-25T08:24:13;994.83;;;11.41;47.77
48810;BME280;40070;47.322;18.784;2024-03-25T08:26:16;994.71;;;11.21;47.79
48810;BME280;40070;47.322;18.784;2024-03-25T08:28:18;994.79;;;11.15;48.36
48810;BME280;40070;47.322;18.784;2024-03-25T08:30:21;994.85;;;11.15;48.29
48810;BME280;40070;47.322;18.784;2024-03-25T08:32:23;994.77;;;10.90;48.82
48810;BME280;40070;47.322;18.784;2024-03-25T08:34:26;994.77;;;10.86;48.86
48810;BME280;40070;47.322;18.784;2024-03-25T08:36:28;994.89;;;10.97;49.22
48810;BME280;40070;47.322;18.784;2024-03-25T08:38:31;994.85;;;10.95;49.16
48810;BME280;40070;47.322;18.784;2024-03-25T08:40:33;994.85;;;11.03;49.05
48810;BME280;40070;47.322;18.784;2024-03-25T08:42:36;994.85;;;11.11;48.63
48810;BME280;40070;47.322;18.784;2024-03-25T08:44:38;994.81;;;11.17;48.58
48810;BME280;40070;47.322;18.784;2024-03-25T08:46:41;994.87;;;11.11;48.86
48810;BME280;40070;47.322;18.784;2024-03-25T08:48:43;994.84;;;11.01;48.81
48810;BME280;40070;47.322;18.784;2024-03-25T08:50:46;994.78;;;11.33;48.40
48810;BME280;40070;47.322;18.784;2024-03-25T08:52:48;994.79;;;11.44;47.76
48810;BME280;40070;47.322;18.784;2024-03-25T08:54:51;994.81;;;11.41;47.09
48810;BME280;40070;47.322;18.784;2024-03-25T08:56:53;994.87;;;11.25;46.76
48810;BME280;40070;47.322;18.784;2024-03-25T08:58:56;994.85;;;11.68;46.68
48810;BME280;40070;47.322;18.784;2024-03-25T09:00:58;994.83;;;12.14;45.96
48810;BME280;40070;47.322;18.784;2024-03-25T09:03:01;994.68;;;12.45;45.10
48810;BME280;40070;47.322;18.784;2024-03-25T09:05:03;994.77;;;12.72;44.46
48810;BME280;40070;47.322;18.784;2024-03-25T09:07:06;994.77;;;12.71;43.92
48810;BME280;40070;47.322;18.784;2024-03-25T09:09:08;994.85;;;12.19;44.45
48810;BME280;40070;47.322;18.784;2024-03-25T09:11:11;994.83;;;11.90;44.61
48810;BME280;40070;47.322;18.784;2024-03-25T09:13:13;994.83;;;12.15;44.20
48810;BME280;40070;47.322;18.784;2024-03-25T09:15:16;994.75;;;12.46;43.57
48810;BME280;40070;47.322;18.784;2024-03-25T09:17:18;994.75;;;12.28;43.69
48810;BME280;40070;47.322;18.784;2024-03-25T09:19:21;994.77;;;12.51;43.26
48810;BME280;40070;47.322;18.784;2024-03-25T09:21:23;994.76;;;12.05;43.79
48810;BME280;40070;47.322;18.784;2024-03-25T09:23:26;994.80;;;11.77;43.92
48810;BME280;40070;47.322;18.784;2024-03-25T09:25:28;994.90;;;11.82;44.58
48810;BME280;40070;47.322;18.784;2024-03-25T09:27:31;994.86;;;11.93;44.17
48810;BME280;40070;47.322;18.784;2024-03-25T09:29:33;994.73;;;12.35;43.65
48810;BME280;40070;47.322;18.784;2024-03-25T09:31:35;994.61;;;12.54;42.50
48810;BME280;40070;47.322;18.784;2024-03-25T09:33:38;994.63;;;12.75;41.94
48810;BME280;40070;47.322;18.784;2024-03-25T09:35:40;994.68;;;13.13;41.77
48810;BME280;40070;47.322;18.784;2024-03-25T09:37:43;994.63;;;13.28;40.83
48810;BME280;40070;47.322;18.784;2024-03-25T09:39:45;994.71;;;13.31;40.78
48810;BME280;40070;47.322;18.784;2024-03-25T09:41:48;994.58;;;13.27;40.26
48810;BME280;40070;47.322;18.784;2024-03-25T09:43:53;994.67;;;12.90;40.01
48810;BME280;40070;47.322;18.784;2024-03-25T09:45:56;994.63;;;12.36;40.28
48810;BME280;40070;47.322;18.784;2024-03-25T09:47:59;994.68;;;12.48;41.48
48810;BME280;40070;47.322;18.784;2024-03-25T09:50:04;994.64;;;12.59;41.30
48810;BME280;40070;47.322;18.784;2024-03-25T09:52:08;994.64;;;12.63;41.94
48810;BME280;40070;47.322;18.784;2024-03-25T09:54:10;994.69;;;13.04;40.61
48810;BME280;40070;47.322;18.784;2024-03-25T09:56:13;994.77;;;13.48;39.32
48810;BME280;40070;47.322;18.784;2024-03-25T09:58:15;994.63;;;13.93;39.10
48810;BME280;40070;47.322;18.784;2024-03-25T10:00:20;994.74;;;13.36;39.51
48810;BME280;40070;47.322;18.784;2024-03-25T10:02:23;994.62;;;13.42;40.42
48810;BME280;40070;47.322;18.784;2024-03-25T10:04:26;994.59;;;13.42;39.04
48810;BME280;40070;47.322;18.784;2024-03-25T10:06:28;994.71;;;13.25;39.45
48810;BME280;40070;47.322;18.784;2024-03-25T10:08:31;994.59;;;13.11;40.37
48810;BME280;40070;47.322;18.784;2024-03-25T10:10:33;994.62;;;12.82;41.20
48810;BME280;40070;47.322;18.784;2024-03-25T10:12:36;994.71;;;12.89;41.12
48810;BME280;40070;47.322;18.784;2024-03-25T10:14:41;994.71;;;12.83;39.65
48810;BME280;40070;47.322;18.784;2024-03-25T10:16:44;994.72;;;12.50;39.85
48810;BME280;40070;47.322;18.784;2024-03-25T10:18:47;994.70;;;12.28;40.43
48810;BME280;40070;47.322;18.784;2024-03-25T10:20:52;994.73;;;12.26;40.68
48810;BME280;40070;47.322;18.784;2024-03-25T10:22:55;994.79;;;12.24;40.86
48810;BME280;40070;47.322;18.784;2024-03-25T10:24:57;994.77;;;12.33;40.69
48810;BME280;40070;47.322;18.784;2024-03-25T10:27:00;994.71;;;12.54;40.57
48810;BME280;40070;47.322;18.784;2024-03-25T10:29:03;994.70;;;12.76;40.23
48810;BME280;40070;47.322;18.784;2024-03-25T10:31:05;994.63;;;12.70;40.05
48810;BME280;40070;47.322;18.784;2024-03-25T10:33:08;994.60;;;12.70;39.94
48810;BME280;40070;47.322;18.784;2024-03-25T10:35:11;994.64;;;12.62;40.52
48810;BME280;40070;47.322;18.784;2024-03-25T10:37:13;994.60;;;12.48;39.92
48810;BME280;40070;47.322;18.784;2024-03-25T10:39:16;994.56;;;12.65;40.02
48810;BME280;40070;47.322;18.784;2024-03-25T10:41:19;994.55;;;12.83;39.79
48810;BME280;40070;47.322;18.784;2024-03-25T10:43:22;994.61;;;13.27;40.29
48810;BME280;40070;47.322;18.784;2024-03-25T10:45:29;994.62;;;13.43;39.88
48810;BME280;40070;47.322;18.784;2024-03-25T10:47:32;994.53;;;13.80;39.56
48810;BME280;40070;47.322;18.784;2024-03-25T10:49:44;994.54;;;13.56;39.37
48810;BME280;40070;47.322;18.784;2024-03-25T10:51:50;994.60;;;13.67;39.16
48810;BME280;40070;47.322;18.784;2024-03-25T10:53:53;994.65;;;13.46;39.43
48810;BME280;40070;47.322;18.784;2024-03-25T10:55:56;994.64;;;13.35;38.48
48810;BME280;40070;47.322;18.784;2024-03-25T10:57:58;994.62;;;13.00;38.55
48810;BME280;40070;47.322;18.784;2024-03-25T11:00:03;994.59;;;12.90;39.66
48810;BME280;40070;47.322;18.784;2024-03-25T11:02:05;994.53;;;13.03;38.75
48810;BME280;40070;47.322;18.784;2024-03-25T11:04:08;994.56;;;13.31;38.71